createdAt,value
2023-04-22T00:00:17.072Z,9.80
2023-04-22T00:02:45.751Z,9.90
2023-04-22T00:05:16.612Z,9.80
2023-04-22T00:07:47.443Z,9.90
2023-04-22T00:10:16.871Z,9.90
2023-04-22T00:12:44.891Z,10.00
2023-04-22T00:15:13.135Z,9.90
2023-04-22T00:17:42.860Z,9.90
2023-04-22T00:20:12.821Z,10.00
2023-04-22T00:22:41.137Z,9.90
2023-04-22T00:25:10.062Z,10.00
2023-04-22T00:27:39.516Z,9.90
2023-04-22T00:30:11.292Z,9.90
2023-04-22T00:32:39.411Z,9.90
2023-04-22T00:35:08.576Z,9.80
2023-04-22T00:37:36.850Z,9.90
2023-04-22T00:40:06.503Z,9.90
2023-04-22T00:42:34.574Z,9.90
2023-04-22T00:45:04.006Z,9.80
2023-04-22T00:47:33.240Z,9.90
2023-04-22T00:50:01.973Z,9.90
2023-04-22T00:52:32.736Z,9.90
2023-04-22T00:55:01.431Z,9.90
2023-04-22T00:57:31.792Z,9.80
2023-04-22T01:00:00.445Z,9.80
2023-04-22T01:02:32.491Z,9.70
2023-04-22T01:05:01.550Z,9.60
2023-04-22T01:07:30.488Z,9.70
2023-04-22T01:09:59.131Z,9.70
2023-04-22T01:12:27.156Z,9.70
2023-04-22T01:14:55.916Z,9.70
2023-04-22T01:17:24.874Z,9.70
2023-04-22T01:19:55.864Z,9.70
2023-04-22T01:22:25.247Z,9.70
2023-04-22T01:24:55.217Z,9.70
2023-04-22T01:27:23.484Z,9.70
2023-04-22T01:29:52.290Z,9.70
2023-04-22T01:32:21.317Z,9.60
2023-04-22T01:34:49.868Z,9.60
2023-04-22T01:37:19.498Z,9.60
2023-04-22T01:39:48.802Z,9.60
2023-04-22T01:42:18.554Z,9.60
2023-04-22T01:44:46.657Z,9.60
2023-04-22T01:47:14.857Z,9.50
2023-04-22T01:49:43.301Z,9.50
2023-04-22T01:52:11.504Z,9.50
2023-04-22T01:54:39.867Z,9.50
2023-04-22T01:57:11.163Z,9.50
2023-04-22T01:59:40.831Z,9.60
2023-04-22T02:02:09.218Z,9.60
2023-04-22T02:04:37.332Z,9.60
2023-04-22T02:07:05.544Z,9.60
2023-04-22T02:09:34.847Z,9.60
2023-04-22T02:12:03.180Z,9.50
2023-04-22T02:14:31.300Z,9.50
2023-04-22T02:17:02.358Z,9.50
2023-04-22T02:19:30.459Z,9.50
2023-04-22T02:21:59.081Z,9.50
2023-04-22T02:24:27.104Z,9.50
2023-04-22T02:26:55.053Z,9.50
2023-04-22T02:29:24.468Z,9.50
2023-04-22T02:31:52.618Z,9.50
2023-04-22T02:34:22.488Z,9.40
2023-04-22T02:36:50.702Z,9.50
2023-04-22T02:39:19.023Z,9.50
2023-04-22T02:41:47.329Z,9.50
2023-04-22T02:44:15.415Z,9.50
2023-04-22T02:46:43.540Z,9.50
2023-04-22T02:49:11.668Z,9.40
2023-04-22T02:56:38.108Z,9.60
2023-04-22T02:59:06.206Z,9.60
2023-04-22T03:01:34.491Z,9.50
2023-04-22T03:04:02.746Z,9.50
2023-04-22T03:06:31.128Z,9.50
2023-04-22T03:09:00.823Z,9.50
2023-04-22T03:13:57.177Z,9.50
2023-04-22T03:16:25.961Z,9.50
2023-04-22T03:18:54.030Z,9.50
2023-04-22T03:21:22.056Z,9.60
2023-04-22T03:23:50.394Z,9.60
2023-04-22T03:26:19.678Z,9.50
2023-04-22T03:28:47.746Z,9.50
2023-04-22T03:31:15.868Z,9.50
2023-04-22T03:33:43.850Z,9.50
2023-04-22T03:36:13.719Z,9.50
2023-04-22T03:38:41.734Z,9.50
2023-04-22T03:41:10.260Z,9.50
2023-04-22T03:43:39.736Z,9.50
2023-04-22T03:46:08.622Z,9.50
2023-04-22T03:48:36.720Z,9.60
2023-04-22T03:51:05.148Z,9.60
2023-04-22T03:53:33.152Z,9.60
2023-04-22T03:56:01.166Z,9.60
2023-04-22T03:58:29.242Z,9.60
2023-04-22T04:00:58.755Z,9.60
2023-04-22T04:03:30.220Z,9.50
2023-04-22T04:05:59.223Z,9.50
2023-04-22T04:08:27.863Z,9.60
2023-04-22T04:10:56.074Z,9.60
2023-04-22T04:13:24.126Z,9.60
2023-04-22T04:15:52.583Z,9.60
2023-04-22T04:23:18.881Z,9.80
2023-04-22T04:25:46.985Z,9.70
2023-04-22T04:28:15.422Z,9.70
2023-04-22T04:30:43.455Z,9.60
2023-04-22T04:33:12.436Z,9.60
2023-04-22T04:35:43.360Z,9.60
2023-04-22T04:38:12.029Z,9.70
2023-04-22T04:40:40.157Z,9.70
2023-04-22T04:43:09.002Z,9.70
2023-04-22T04:45:37.926Z,9.80
2023-04-22T04:48:07.176Z,9.80
2023-04-22T04:50:35.350Z,10.00
2023-04-22T04:53:04.742Z,10.00
2023-04-22T04:55:32.933Z,10.10
2023-04-22T04:58:01.204Z,10.20
2023-04-22T05:00:29.913Z,10.30
2023-04-22T05:02:58.199Z,10.40
2023-04-22T05:05:26.587Z,10.50
2023-04-22T05:07:55.096Z,10.60
2023-04-22T05:10:25.441Z,10.70
2023-04-22T05:12:53.494Z,10.80
2023-04-22T05:15:21.633Z,11.00
2023-04-22T05:17:49.806Z,11.10
2023-04-22T05:20:18.130Z,11.30
2023-04-22T05:22:46.503Z,11.50
2023-04-22T05:25:14.776Z,11.80
2023-04-22T05:27:44.184Z,11.90
2023-04-22T05:30:12.612Z,12.10
2023-04-22T05:32:40.975Z,12.30
2023-04-22T05:35:10.374Z,12.60
2023-04-22T05:37:41.991Z,12.70
2023-04-22T05:40:11.070Z,12.90
2023-04-22T05:42:39.367Z,13.00
2023-04-22T05:45:10.775Z,13.20
2023-04-22T05:47:39.258Z,13.30
2023-04-22T05:50:08.769Z,13.50
2023-04-22T05:52:37.105Z,13.60
2023-04-22T05:55:07.809Z,13.70
2023-04-22T05:57:36.237Z,13.90
2023-04-22T06:00:05.433Z,14.00
2023-04-22T06:02:35.229Z,14.10
2023-04-22T06:05:03.861Z,14.30
2023-04-22T06:07:32.679Z,14.40
2023-04-22T06:10:05.202Z,14.50
2023-04-22T06:12:34.531Z,14.70
2023-04-22T06:15:03.238Z,14.80
2023-04-22T06:17:31.640Z,14.90
2023-04-22T06:20:01.402Z,14.90
2023-04-22T06:22:29.812Z,14.90
2023-04-22T06:24:58.331Z,15.00
2023-04-22T06:27:26.681Z,15.10
2023-04-22T06:29:54.849Z,15.10
2023-04-22T06:32:23.255Z,15.20
2023-04-22T06:34:51.376Z,15.30
2023-04-22T06:37:21.151Z,15.40
2023-04-22T06:39:49.383Z,15.40
2023-04-22T06:42:17.698Z,15.50
2023-04-22T06:44:45.901Z,15.60
2023-04-22T06:47:14.165Z,15.60
2023-04-22T06:49:43.279Z,15.70
2023-04-22T06:52:12.039Z,15.70
2023-04-22T06:54:41.785Z,15.70
2023-04-22T06:57:09.938Z,15.80
2023-04-22T06:59:38.158Z,15.70
2023-04-22T07:02:07.041Z,15.70
2023-04-22T07:04:35.730Z,15.70
2023-04-22T07:07:06.905Z,15.80
2023-04-22T07:09:37.951Z,15.80
2023-04-22T07:12:54.918Z,15.70
2023-04-22T07:15:24.747Z,15.70
2023-04-22T07:17:52.985Z,15.70
2023-04-22T07:20:21.213Z,15.70
2023-04-22T07:22:52.923Z,15.80
2023-04-22T07:25:21.062Z,15.90
2023-04-22T07:27:55.043Z,16.10
2023-04-22T07:30:25.281Z,16.30
2023-04-22T07:32:54.017Z,16.30
2023-04-22T07:35:22.525Z,16.30
2023-04-22T07:38:21.896Z,16.50
2023-04-22T07:41:14.373Z,16.70
2023-04-22T07:43:43.956Z,16.80
2023-04-22T07:46:16.346Z,16.80
2023-04-22T07:48:45.305Z,16.90
2023-04-22T07:51:13.817Z,16.90
2023-04-22T07:53:42.041Z,17.00
2023-04-22T07:56:16.404Z,16.90
2023-04-22T07:59:12.659Z,17.00
2023-04-22T08:01:47.791Z,17.10
2023-04-22T08:04:19.097Z,17.20
2023-04-22T08:06:59.724Z,17.30
2023-04-22T08:10:33.059Z,17.40
2023-04-22T08:13:20.667Z,17.60
2023-04-22T08:15:48.946Z,17.80
2023-04-22T08:18:18.646Z,17.90
2023-04-22T08:21:09.993Z,18.00
2023-04-22T08:23:43.756Z,18.10
2023-04-22T08:26:17.017Z,18.30
2023-04-22T08:28:45.081Z,18.30
2023-04-22T08:31:13.159Z,18.50
2023-04-22T08:33:42.800Z,18.50
2023-04-22T08:36:14.564Z,18.60
2023-04-22T08:38:42.739Z,18.70
2023-04-22T08:41:11.855Z,18.70
2023-04-22T08:43:46.115Z,18.70
2023-04-22T08:46:34.838Z,18.80
2023-04-22T08:49:22.574Z,18.90
2023-04-22T08:51:53.119Z,19.10
2023-04-22T08:54:24.460Z,19.10
2023-04-22T08:56:52.754Z,19.30
2023-04-22T08:59:25.631Z,19.30
2023-04-22T09:01:55.054Z,19.40
2023-04-22T09:04:25.113Z,19.40
2023-04-22T09:06:54.043Z,19.40
2023-04-22T09:09:25.238Z,19.50
2023-04-22T09:11:56.717Z,19.70
2023-04-22T09:14:46.957Z,20.00
2023-04-22T09:17:18.932Z,20.10
2023-04-22T09:20:12.944Z,19.90
2023-04-22T09:22:58.651Z,19.90
2023-04-22T09:25:37.506Z,20.00
2023-04-22T09:28:08.514Z,20.10
2023-04-22T09:30:38.021Z,20.40
2023-04-22T09:33:11.046Z,20.50
2023-04-22T09:35:48.011Z,20.50
2023-04-22T09:38:18.462Z,20.70
2023-04-22T09:40:47.727Z,20.70
2023-04-22T09:43:22.645Z,20.90
2023-04-22T09:46:14.314Z,20.90
2023-04-22T09:48:47.660Z,21.00
2023-04-22T09:51:20.610Z,21.00
2023-04-22T09:54:22.857Z,21.10
2023-04-22T09:56:56.831Z,21.20
2023-04-22T09:59:26.506Z,21.40
2023-04-22T10:02:02.608Z,21.60
2023-04-22T10:04:43.510Z,21.70
2023-04-22T10:07:17.316Z,21.80
2023-04-22T10:09:55.171Z,21.90
2023-04-22T10:12:32.804Z,22.00
2023-04-22T10:15:10.678Z,22.10
2023-04-22T10:18:26.012Z,22.10
2023-04-22T10:20:58.732Z,22.10
2023-04-22T10:23:37.789Z,22.10
2023-04-22T10:26:07.928Z,22.30
2023-04-22T10:28:36.398Z,22.50
2023-04-22T10:31:08.441Z,22.70
2023-04-22T10:33:43.462Z,22.90
2023-04-22T10:36:17.852Z,23.10
2023-04-22T10:39:18.831Z,23.20
2023-04-22T10:42:10.104Z,23.20
2023-04-22T10:44:51.007Z,23.40
2023-04-22T10:47:30.593Z,23.50
2023-04-22T10:50:26.171Z,23.60
2023-04-22T10:53:01.069Z,23.60
2023-04-22T10:55:54.330Z,23.70
2023-04-22T10:58:25.678Z,23.80
2023-04-22T11:01:00.412Z,23.90
2023-04-22T11:03:32.358Z,24.00
2023-04-22T11:06:17.425Z,24.00
2023-04-22T11:09:21.741Z,24.20
2023-04-22T11:11:53.995Z,24.10
2023-04-22T11:14:23.699Z,24.10
2023-04-22T11:16:58.877Z,24.10
2023-04-22T11:19:29.620Z,24.10
2023-04-22T11:22:03.973Z,24.20
2023-04-22T11:24:34.083Z,24.30
2023-04-22T11:27:27.015Z,24.30
2023-04-22T11:30:02.362Z,24.40
2023-04-22T11:32:32.805Z,24.50
2023-04-22T11:35:05.734Z,24.40
2023-04-22T11:37:43.238Z,24.30
2023-04-22T11:40:29.147Z,24.40
2023-04-22T11:43:01.830Z,24.40
2023-04-22T11:45:31.662Z,24.60
2023-04-22T11:48:00.479Z,24.60
2023-04-22T11:50:31.326Z,24.60
2023-04-22T11:53:01.202Z,24.50
2023-04-22T11:55:31.544Z,24.50
2023-04-22T11:58:08.574Z,24.50
2023-04-22T12:00:41.066Z,24.60
2023-04-22T12:03:15.972Z,24.70
2023-04-22T12:05:46.642Z,24.90
2023-04-22T12:08:16.907Z,25.00
2023-04-22T12:10:47.133Z,25.10
2023-04-22T12:13:25.266Z,25.10
2023-04-22T12:15:58.856Z,25.20
2023-04-22T12:18:31.164Z,25.30
2023-04-22T12:21:12.381Z,25.30
2023-04-22T12:23:46.323Z,25.50
2023-04-22T12:26:29.051Z,25.60
2023-04-22T12:29:06.821Z,25.80
2023-04-22T12:31:37.192Z,25.90
2023-04-22T12:34:09.052Z,26.00
2023-04-22T12:36:44.300Z,26.10
2023-04-22T12:39:17.694Z,26.20
2023-04-22T12:41:46.242Z,26.40
2023-04-22T12:44:24.905Z,26.40
2023-04-22T12:47:12.761Z,26.40
2023-04-22T12:49:48.146Z,26.20
2023-04-22T12:52:24.943Z,26.00
2023-04-22T12:54:58.465Z,26.10
2023-04-22T12:57:38.591Z,26.20
2023-04-22T13:00:14.646Z,26.30
2023-04-22T13:02:53.439Z,26.40
2023-04-22T13:05:30.193Z,26.60
2023-04-22T13:08:07.479Z,26.70
2023-04-22T13:10:36.496Z,26.60
2023-04-22T13:13:17.641Z,26.60
2023-04-22T13:15:54.400Z,26.70
2023-04-22T13:18:25.351Z,26.80
2023-04-22T13:20:56.950Z,26.90
2023-04-22T13:23:28.532Z,26.90
2023-04-22T13:26:02.987Z,26.90
2023-04-22T13:28:31.278Z,26.90
2023-04-22T13:31:01.219Z,26.90
2023-04-22T13:33:29.812Z,27.00
2023-04-22T13:35:58.092Z,26.70
2023-04-22T13:38:28.314Z,26.50
2023-04-22T13:41:04.526Z,26.40
2023-04-22T13:44:06.383Z,26.20
2023-04-22T13:46:36.104Z,26.10
2023-04-22T13:49:07.572Z,25.80
2023-04-22T13:51:37.757Z,25.80
2023-04-22T13:54:13.870Z,25.80
2023-04-22T13:56:46.893Z,25.70
2023-04-22T13:59:15.669Z,25.90
2023-04-22T14:01:45.511Z,26.10
2023-04-22T14:04:16.878Z,26.20
2023-04-22T14:06:47.288Z,26.40
2023-04-22T14:09:24.827Z,26.60
2023-04-22T14:11:53.708Z,26.60
2023-04-22T14:14:24.264Z,26.60
2023-04-22T14:16:54.384Z,26.60
2023-04-22T14:19:24.499Z,26.40
2023-04-22T14:21:52.852Z,26.20
2023-04-22T14:24:21.141Z,26.10
2023-04-22T14:26:53.056Z,26.00
2023-04-22T14:29:23.539Z,25.80
2023-04-22T14:32:15.839Z,25.60
2023-04-22T14:37:44.488Z,25.30
2023-04-22T14:40:40.595Z,25.10
2023-04-22T14:43:09.831Z,25.10
2023-04-22T14:45:44.496Z,25.00
2023-04-22T14:48:28.085Z,25.00
2023-04-22T14:51:21.038Z,24.90
2023-04-22T14:54:03.140Z,24.70
2023-04-22T14:56:41.865Z,24.50
2023-04-22T14:59:19.759Z,24.50
2023-04-22T15:01:48.099Z,24.30
2023-04-22T15:04:21.801Z,24.20
2023-04-22T15:06:56.271Z,24.20
2023-04-22T15:09:33.126Z,24.10
2023-04-22T15:12:06.781Z,24.00
2023-04-22T15:14:37.024Z,23.90
2023-04-22T15:17:19.020Z,23.90
2023-04-22T15:20:06.095Z,23.90
2023-04-22T15:23:14.560Z,23.90
2023-04-22T15:25:48.156Z,23.90
2023-04-22T15:28:29.607Z,23.80
2023-04-22T15:30:57.937Z,23.80
2023-04-22T15:33:26.208Z,23.70
2023-04-22T15:35:54.461Z,23.70
2023-04-22T15:38:24.851Z,23.70
2023-04-22T15:40:56.394Z,23.70
2023-04-22T15:43:25.060Z,23.60
2023-04-22T15:45:53.487Z,23.60
2023-04-22T15:48:29.633Z,23.60
2023-04-22T15:50:59.535Z,23.50
2023-04-22T15:53:31.804Z,23.40
2023-04-22T15:56:00.410Z,23.30
2023-04-22T15:58:32.472Z,23.10
2023-04-22T16:01:17.367Z,23.10
2023-04-22T16:03:52.345Z,23.00
2023-04-22T16:06:21.332Z,23.00
2023-04-22T16:08:55.435Z,22.90
2023-04-22T16:11:27.152Z,22.80
2023-04-22T16:14:23.372Z,22.80
2023-04-22T16:16:59.769Z,22.80
2023-04-22T16:19:42.067Z,22.80
2023-04-22T16:22:20.593Z,22.70
2023-04-22T16:24:52.449Z,22.70
2023-04-22T16:27:21.063Z,22.70
2023-04-22T16:29:59.381Z,22.70
2023-04-22T16:32:30.818Z,22.60
2023-04-22T16:34:59.343Z,22.60
2023-04-22T16:37:28.284Z,22.50
2023-04-22T16:39:58.133Z,22.40
2023-04-22T16:42:28.234Z,22.40
2023-04-22T16:44:56.691Z,22.40
2023-04-22T16:47:25.454Z,22.30
2023-04-22T16:49:57.300Z,22.30
2023-04-22T16:52:25.781Z,22.20
2023-04-22T16:54:54.147Z,22.20
2023-04-22T16:57:24.411Z,22.10
2023-04-22T16:59:52.903Z,22.00
2023-04-22T17:02:21.649Z,21.90
2023-04-22T17:04:50.130Z,21.80
2023-04-22T17:07:18.470Z,21.70
2023-04-22T17:09:46.841Z,21.50
2023-04-22T17:12:15.073Z,21.50
2023-04-22T17:14:44.895Z,21.30
2023-04-22T17:17:13.856Z,21.20
2023-04-22T17:19:43.028Z,21.10
2023-04-22T17:22:11.730Z,21.10
2023-04-22T17:24:40.053Z,21.00
2023-04-22T17:27:08.457Z,20.90
2023-04-22T17:29:37.207Z,20.80
2023-04-22T17:32:07.677Z,20.80
2023-04-22T17:34:43.842Z,20.70
2023-04-22T17:37:12.339Z,20.60
2023-04-22T17:40:11.964Z,20.50
2023-04-22T17:45:25.852Z,20.30
2023-04-22T17:48:04.286Z,20.30
2023-04-22T17:50:32.884Z,20.20
2023-04-22T17:53:01.389Z,20.10
2023-04-22T17:55:37.171Z,20.10
2023-04-22T17:58:06.158Z,20.00
2023-04-22T18:00:35.627Z,20.00
2023-04-22T18:03:08.924Z,19.90
2023-04-22T18:05:43.361Z,19.80
2023-04-22T18:08:15.049Z,19.80
2023-04-22T18:10:43.471Z,19.70
2023-04-22T18:13:41.398Z,19.70
2023-04-22T18:16:13.514Z,19.60
2023-04-22T18:18:55.443Z,19.60
2023-04-22T18:21:29.075Z,19.60
2023-04-22T18:24:05.112Z,19.50
2023-04-22T18:26:33.706Z,19.50
2023-04-22T18:29:02.084Z,19.40
2023-04-22T18:31:30.474Z,19.40
2023-04-22T18:34:00.882Z,19.30
2023-04-22T18:36:37.205Z,19.20
2023-04-22T18:39:08.516Z,19.20
2023-04-22T18:41:40.820Z,19.20
2023-04-22T18:44:17.683Z,19.10
2023-04-22T18:46:48.336Z,19.10
2023-04-22T18:49:39.611Z,19.10
2023-04-22T18:52:14.707Z,19.00
2023-04-22T18:54:56.418Z,18.90
2023-04-22T18:57:28.449Z,18.90
2023-04-22T19:00:21.683Z,18.80
2023-04-22T19:03:04.324Z,18.70
2023-04-22T19:05:46.893Z,18.70
2023-04-22T19:08:15.333Z,18.60
2023-04-22T19:11:21.550Z,18.60
2023-04-22T19:14:03.104Z,18.50
2023-04-22T19:19:27.774Z,18.20
2023-04-22T19:21:58.154Z,18.00
2023-04-22T19:27:21.552Z,17.90
2023-04-22T19:29:56.289Z,17.80
2023-04-22T19:32:51.217Z,17.80
2023-04-22T19:35:34.661Z,17.80
2023-04-22T19:40:52.026Z,17.70
2023-04-22T19:43:24.286Z,17.70
2023-04-22T19:46:08.994Z,17.60
2023-04-22T19:51:15.417Z,17.60
2023-04-22T19:53:52.769Z,17.50
2023-04-22T20:07:50.550Z,17.50
2023-04-22T20:30:37.354Z,17.00
2023-04-22T20:49:29.697Z,16.90
2023-04-22T20:52:18.393Z,16.80
2023-04-22T20:55:05.486Z,16.60
2023-04-22T21:00:27.087Z,16.50
2023-04-22T21:05:57.677Z,16.30
2023-04-22T21:08:39.929Z,16.30
2023-04-22T21:14:09.514Z,16.20
2023-04-22T21:16:50.093Z,16.10
2023-04-22T21:19:29.269Z,16.10
2023-04-22T21:22:13.298Z,16.00
2023-04-22T21:24:52.177Z,16.10
2023-04-22T21:27:31.685Z,16.10
2023-04-22T21:38:21.484Z,16.00
2023-04-22T21:40:50.260Z,16.00
2023-04-22T21:43:18.897Z,16.00
2023-04-22T21:45:47.279Z,16.00
2023-04-22T21:48:17.467Z,15.90
2023-04-22T21:50:49.738Z,16.00
2023-04-22T21:53:19.664Z,15.90
2023-04-22T21:55:48.059Z,15.90
2023-04-22T21:58:16.581Z,15.90
2023-04-22T22:00:45.192Z,15.90
2023-04-22T22:03:14.111Z,15.90
2023-04-22T22:05:44.115Z,15.90
2023-04-22T22:08:14.320Z,15.90
2023-04-22T22:10:44.018Z,15.90
2023-04-22T22:13:12.344Z,15.90
2023-04-22T22:15:56.947Z,15.90
2023-04-22T22:18:25.311Z,15.90
2023-04-22T22:20:55.426Z,15.80
2023-04-22T22:23:23.721Z,15.80
2023-04-22T22:25:52.049Z,15.80
2023-04-22T22:28:20.434Z,15.80
2023-04-22T22:30:48.666Z,15.80
2023-04-22T22:33:19.968Z,15.80
2023-04-22T22:35:49.353Z,15.80
2023-04-22T22:38:19.298Z,15.70
2023-04-22T22:40:47.586Z,15.70
2023-04-22T22:43:16.356Z,15.60
2023-04-22T22:45:44.944Z,15.60
2023-04-22T22:48:13.411Z,15.50
2023-04-22T22:50:42.321Z,15.50
2023-04-22T22:53:10.692Z,15.50
2023-04-22T22:55:40.740Z,15.40
2023-04-22T22:58:12.218Z,15.50
2023-04-22T23:00:40.507Z,15.40
2023-04-22T23:03:09.029Z,15.40
2023-04-22T23:05:37.381Z,15.40
2023-04-22T23:08:06.130Z,15.40
2023-04-22T23:10:34.626Z,15.40
2023-04-22T23:13:04.948Z,15.30
2023-04-22T23:15:33.368Z,15.30
2023-04-22T23:18:02.088Z,15.30
2023-04-22T23:20:43.242Z,15.30
2023-04-22T23:23:17.099Z,15.30
2023-04-22T23:25:49.256Z,15.20
2023-04-22T23:28:20.192Z,15.20
2023-04-22T23:33:23.525Z,15.30
2023-04-22T23:35:53.635Z,15.20
2023-04-22T23:43:23.434Z,15.20
2023-04-22T23:45:51.811Z,15.10
2023-04-22T23:48:20.021Z,15.20
2023-04-22T23:50:48.296Z,15.10
2023-04-22T23:53:16.388Z,15.00
2023-04-22T23:55:44.976Z,14.90
2023-04-22T23:58:13.632Z,14.80
